Allegro — J8B5341 — position and weather

sailwx.info

Track history (hours):
 
Tides and Currents Weather Stations Pressure Air Temp Water Temp Dewpoint Dewpoint Depression Visibility Wind Speed Wind Dir Waves Ship Positions

Allegro

Last reported at 2017-Oct-19 05:20 UTC. Time now 2017-Oct-19 11:16 UTC.
Position N 26°03' W 079°35'.

Length 100 m; draft 4.6 m.

Type: Ship. MMSI: 376609000.

Date/timePositionNaut miles runAvg speedWind from/ knotsBaromVisibWave heightAir tempDewpointWater temp
2017-Oct-19 05:20N 26°03' W 079°35'410.9
2017-Oct-19 05:00N 26°05' W 079°39'510.7
2017-Oct-19 04:30N 26°06' W 079°44'510.7
2017-Oct-19 04:00N 26°08' W 079°50'510.8
2017-Oct-19 03:30N 26°06' W 079°56'611.9
2017-Oct-19 03:00N 26°05' W 080°02'4 8.4
2017-Oct-19 02:30N 26°05' W 080°07'1 1.9
2017-Oct-19 02:00N 26°04' W 080°07'0 0.0
2017-Oct-19 01:28N 26°04' W 080°07'0 0.0
2017-Oct-19 00:58N 26°04' W 080°07'0 0.0
2017-Oct-19 00:28N 26°04' W 080°07'0 0.0
2017-Oct-18 23:52N 26°04' W 080°07'0 0.0
2017-Oct-18 23:28N 26°04' W 080°07'0 0.0
2017-Oct-18 23:00N 26°04' W 080°07'0 0.0
2017-Oct-18 22:30N 26°04' W 080°07'0 0.0
2017-Oct-18 21:57N 26°04' W 080°07'0 0.0
2017-Oct-18 21:27N 26°04' W 080°07'0 0.0
2017-Oct-18 21:00N 26°04' W 080°07'0 0.0
2017-Oct-18 20:29N 26°04' W 080°07'0 0.0
2017-Oct-18 19:56N 26°04' W 080°07'0 0.1
2017-Oct-18 19:24N 26°04' W 080°07'2 4.8
2017-Oct-18 19:00N 26°06' W 080°06'1 3.0
2017-Oct-18 18:30N 26°06' W 080°04'2 3.3
2017-Oct-18 18:00N 26°08' W 080°04'0 0.2
2017-Oct-18 17:30N 26°08' W 080°04'0 0.0
2017-Oct-18 17:00N 26°08' W 080°04'0 0.0
2017-Oct-18 16:30N 26°08' W 080°04'0 0.0
2017-Oct-18 16:00N 26°08' W 080°04'0 0.0
2017-Oct-18 15:30N 26°08' W 080°04'0 0.1
2017-Oct-18 15:00N 26°08' W 080°04'0 0.0
2017-Oct-18 14:00N 26°08' W 080°04'0 0.0
2017-Oct-18 13:30N 26°08' W 080°04'0 0.0
2017-Oct-18 13:00N 26°08' W 080°04'0 0.2
2017-Oct-18 12:30N 26°08' W 080°04'4 8.2
2017-Oct-18 12:00N 26°09' W 079°60'510.0
2017-Oct-18 11:30N 26°04' W 079°57'4 7.7
2017-Oct-18 11:00N 26°06' W 079°53'4 7.4
2017-Oct-18 10:30N 26°08' W 079°50'4 7.1
2017-Oct-18 10:00N 26°10' W 079°47'4 7.2
2017-Oct-18 09:30N 26°10' W 079°43'4 7.5
2017-Oct-18 09:00N 26°11' W 079°39'4 8.5
2017-Oct-18 08:30N 26°10' W 079°34'4 8.9
2017-Oct-18 08:00N 26°10' W 079°29'2 0.1
2017-Oct-17 01:34N 26°10' W 079°27'110.9
2017-Oct-17 01:30N 26°10' W 079°27'510.7
2017-Oct-17 01:00N 26°11' W 079°33'510.9
2017-Oct-17 00:30N 26°10' W 079°39'611.3
2017-Oct-17 00:00N 26°08' W 079°46'611.6
2017-Oct-16 23:30N 26°07' W 079°52'611.0
2017-Oct-16 23:00N 26°06' W 079°58'611.5
2017-Oct-16 22:30N 26°06' W 080°04'3 5.8
2017-Oct-16 22:00N 26°04' W 080°07'0 0.1
2017-Oct-16 21:29N 26°04' W 080°07'0 0.0
2017-Oct-16 20:56N 26°04' W 080°07'0 0.0
2017-Oct-16 20:29N 26°04' W 080°07'0 0.0
2017-Oct-16 19:59N 26°04' W 080°07'0 0.0
2017-Oct-16 19:28N 26°04' W 080°07'0 0.0
2017-Oct-16 18:58N 26°04' W 080°07'0 0.0
2017-Oct-16 18:28N 26°04' W 080°07'0 0.0
2017-Oct-16 17:49N 26°04' W 080°07'1 1.9
2017-Oct-16 17:30N 26°05' W 080°07'3 6.3
2017-Oct-16 17:00N 26°06' W 080°04'1 2.8
2017-Oct-16 16:30N 26°08' W 080°04'0 0.2
2017-Oct-16 16:00N 26°08' W 080°04'0 0.0
2017-Oct-16 15:30N 26°08' W 080°04'0 0.0
2017-Oct-16 14:59N 26°08' W 080°04'0 0.0
2017-Oct-16 14:26N 26°08' W 080°04'0 0.0
2017-Oct-16 13:26N 26°08' W 080°04'0 0.2
2017-Oct-16 12:58N 26°08' W 080°04'0 0.1
2017-Oct-16 12:28N 26°08' W 080°04'0 0.1
2017-Oct-16 11:58N 26°08' W 080°04'0 0.0
2017-Oct-16 11:25N 26°08' W 080°04'0 0.0
2017-Oct-16 11:00N 26°08' W 080°04'0 0.0
2017-Oct-16 10:30N 26°08' W 080°04'0 0.0
2017-Oct-16 10:00N 26°08' W 080°04'0 0.0
2017-Oct-16 09:24N 26°08' W 080°04'0 0.0
2017-Oct-16 08:50N 26°08' W 080°04'0 0.0
2017-Oct-16 08:29N 26°08' W 080°04'0 0.0
2017-Oct-16 07:59N 26°08' W 080°04'0 0.0
2017-Oct-16 07:29N 26°08' W 080°04'0 0.0
2017-Oct-16 06:59N 26°08' W 080°04'0 0.0
2017-Oct-16 06:22N 26°08' W 080°04'0 0.0
2017-Oct-16 05:58N 26°08' W 080°04'0 0.0
2017-Oct-16 05:28N 26°08' W 080°04'0 0.0
2017-Oct-16 04:58N 26°08' W 080°04'0 0.0
2017-Oct-16 04:25N 26°08' W 080°04'0 0.0
2017-Oct-16 04:00N 26°08' W 080°04'0 0.0
2017-Oct-16 03:30N 26°08' W 080°04'0 0.0
2017-Oct-16 03:00N 26°08' W 080°04'0 0.0
2017-Oct-16 02:24N 26°08' W 080°04'0 0.0
2017-Oct-16 01:53N 26°08' W 080°04'0 0.0
2017-Oct-16 01:29N 26°08' W 080°04'0 0.0
2017-Oct-16 00:59N 26°08' W 080°04'0 0.0
2017-Oct-16 00:26N 26°08' W 080°04'0 0.0
2017-Oct-15 23:59N 26°08' W 080°04'0 0.0
2017-Oct-15 23:28N 26°08' W 080°04'0 0.0
2017-Oct-15 22:58N 26°08' W 080°04'0 0.0
2017-Oct-15 22:28N 26°08' W 080°04'0 0.1
2017-Oct-15 21:55N 26°08' W 080°04'0 0.1
2017-Oct-15 21:28N 26°08' W 080°04'0 0.0
2017-Oct-15 21:00N 26°08' W 080°04'0 0.0
2017-Oct-15 20:30N 26°08' W 080°04'0 0.0
2017-Oct-15 19:57N 26°08' W 080°04'0 0.0
2017-Oct-15 19:24N 26°08' W 080°04'0 0.0
2017-Oct-15 18:50N 26°08' W 080°04'0 0.0
2017-Oct-15 18:29N 26°08' W 080°04'0 0.0
2017-Oct-15 17:59N 26°08' W 080°04'0 0.1
2017-Oct-15 17:29N 26°08' W 080°04'0 0.1
2017-Oct-15 16:59N 26°08' W 080°04'0 0.0
2017-Oct-15 16:28N 26°08' W 080°04'0 0.1
2017-Oct-15 15:58N 26°08' W 080°04'0 0.0
2017-Oct-15 15:28N 26°08' W 080°04'0 0.0
2017-Oct-15 14:55N 26°08' W 080°04'0 0.0
2017-Oct-15 14:00N 26°08' W 080°04'0 0.0
2017-Oct-15 13:30N 26°08' W 080°04'0 0.0
2017-Oct-15 12:57N 26°08' W 080°04'0 0.0
2017-Oct-15 12:24N 26°08' W 080°04'0 0.0
2017-Oct-15 11:50N 26°08' W 080°04'0 0.0
2017-Oct-15 11:29N 26°08' W 080°04'0 0.0
2017-Oct-15 10:59N 26°08' W 080°04'0 0.0
2017-Oct-15 10:26N 26°08' W 080°04'0 0.0
2017-Oct-15 09:52N 26°08' W 080°04'0 0.0
2017-Oct-15 09:19N 26°08' W 080°04'0 0.0
2017-Oct-15 08:46N 26°08' W 080°04'0 0.0
2017-Oct-15 08:28N 26°08' W 080°04'0 0.0
2017-Oct-15 07:55N 26°08' W 080°04'0 0.0
2017-Oct-15 07:21N 26°08' W 080°04'0 0.0
2017-Oct-15 07:00N 26°08' W 080°04'0 0.0
2017-Oct-15 06:30N 26°08' W 080°04'0 0.0
2017-Oct-15 05:57N 26°08' W 080°04'0 0.0
2017-Oct-15 05:21N 26°08' W 080°04'0 0.0
2017-Oct-15 04:44N 26°08' W 080°04'0 0.0
2017-Oct-15 04:29N 26°08' W 080°04'0 0.0
2017-Oct-15 03:59N 26°08' W 080°04'0 0.0
2017-Oct-15 03:20N 26°08' W 080°04'0 0.0
2017-Oct-15 02:52N 26°08' W 080°04'0 0.0
2017-Oct-15 02:19N 26°08' W 080°04'0 0.0
2017-Oct-15 01:58N 26°08' W 080°04'0 0.0
2017-Oct-15 01:28N 26°08' W 080°04'0 0.0
2017-Oct-15 00:55N 26°08' W 080°04'0 0.0
2017-Oct-15 00:21N 26°08' W 080°04'0 0.0
2017-Oct-15 00:00N 26°08' W 080°04'0 0.0
2017-Oct-14 23:30N 26°08' W 080°04'0 0.0
2017-Oct-14 23:00N 26°08' W 080°04'0 0.0
2017-Oct-14 22:30N 26°08' W 080°04'0 0.0
2017-Oct-14 22:00N 26°08' W 080°04'0 0.0
2017-Oct-14 21:30N 26°08' W 080°04'0 0.0
2017-Oct-14 21:00N 26°08' W 080°04'0 0.0
2017-Oct-14 20:30N 26°08' W 080°04'0 0.0
2017-Oct-14 20:00N 26°08' W 080°04'0 0.0
2017-Oct-14 19:29N 26°08' W 080°04'0 0.0
2017-Oct-14 19:00N 26°08' W 080°04'0 0.0
2017-Oct-14 18:31N 26°08' W 080°04'0 0.0
2017-Oct-14 18:00N 26°08' W 080°04'0 0.0
2017-Oct-14 17:30N 26°08' W 080°04'0 0.0
2017-Oct-14 17:00N 26°08' W 080°04'0 0.0
2017-Oct-14 16:30N 26°08' W 080°04'0 0.1
2017-Oct-14 16:00N 26°08' W 080°04'0 0.0
2017-Oct-14 15:30N 26°08' W 080°04'0 0.0
2017-Oct-14 15:00N 26°08' W 080°04'0 0.0
2017-Oct-14 14:30N 26°08' W 080°04'0 0.0
2017-Oct-14 14:00N 26°08' W 080°04'0 0.0
2017-Oct-14 13:30N 26°08' W 080°04'0 0.0
2017-Oct-14 13:00N 26°08' W 080°04'0 0.0
2017-Oct-14 12:30N 26°08' W 080°04'0 0.0
2017-Oct-14 12:00N 26°08' W 080°04'0 0.0
2017-Oct-14 11:30N 26°08' W 080°04'0 0.0
2017-Oct-14 11:01N 26°08' W 080°04'0 0.0
2017-Oct-14 10:31N 26°08' W 080°04'0 0.0
2017-Oct-14 10:00N 26°08' W 080°04'0 0.0
2017-Oct-14 09:31N 26°08' W 080°04'0 0.0
2017-Oct-14 09:00N 26°08' W 080°04'0 0.0
2017-Oct-14 08:30N 26°08' W 080°04'0 0.0
2017-Oct-14 08:00N 26°08' W 080°04'0 0.1
2017-Oct-14 07:31N 26°08' W 080°04'0 0.0
2017-Oct-14 07:00N 26°08' W 080°04'0 0.0
2017-Oct-14 06:30N 26°08' W 080°04'0 0.0
2017-Oct-14 06:00N 26°08' W 080°04'0 0.0
2017-Oct-14 05:30N 26°08' W 080°04'0 0.0
2017-Oct-14 05:00N 26°08' W 080°04'0 0.0
2017-Oct-14 04:30N 26°08' W 080°04'0 0.0
2017-Oct-14 04:00N 26°08' W 080°04'0 0.0
2017-Oct-14 03:30N 26°08' W 080°04'0 0.1
2017-Oct-14 03:00N 26°08' W 080°04'0 0.4
2017-Oct-14 02:30N 26°08' W 080°04'1 1.1
2017-Oct-14 02:00N 26°07' W 080°04'1 0.2
2017-Oct-13 23:37N 26°07' W 080°04'0 0.0
2017-Oct-13 23:28N 26°07' W 080°04'0 0.0
2017-Oct-13 22:52N 26°07' W 080°04'0 0.0
2017-Oct-13 22:18N 26°07' W 080°04'0 0.0
2017-Oct-13 22:00N 26°07' W 080°04'0 0.0
2017-Oct-13 21:27N 26°07' W 080°04'0 0.0
2017-Oct-13 21:00N 26°07' W 080°04'0 0.0
2017-Oct-13 20:20N 26°07' W 080°04'0 0.0
2017-Oct-13 19:59N 26°07' W 080°04'0 0.0
2017-Oct-13 19:29N 26°07' W 080°04'0 0.0
2017-Oct-13 18:56N 26°07' W 080°04'0 0.0
2017-Oct-13 18:23N 26°07' W 080°04'0 0.0
2017-Oct-13 17:58N 26°07' W 080°04'0 0.0
2017-Oct-13 17:28N 26°07' W 080°04'0 0.0
2017-Oct-13 16:55N 26°07' W 080°04'0 0.0
2017-Oct-13 16:25N 26°07' W 080°04'0 0.0
2017-Oct-13 15:52N 26°07' W 080°04'0 0.1
2017-Oct-13 15:30N 26°07' W 080°04'3 6.1
2017-Oct-13 15:01N 26°08' W 080°01'510.8
2017-Oct-13 14:31N 26°08' W 079°55'510.6
2017-Oct-13 14:01N 26°09' W 079°49'510.1
2017-Oct-13 13:30N 26°10' W 079°44'510.4
2017-Oct-13 13:00N 26°11' W 079°38'510.5
2017-Oct-13 12:31N 26°11' W 079°32'510.4
2017-Oct-13 11:59N 26°11' W 079°26'4 0.1
2017-Oct-12 04:54N 26°08' W 079°29'410.1
2017-Oct-12 04:30N 26°08' W 079°33'5 9.9
2017-Oct-12 04:00N 26°07' W 079°39'5 9.8
2017-Oct-12 03:30N 26°07' W 079°44'5 9.3
2017-Oct-12 03:00N 26°07' W 079°49'5 9.2
2017-Oct-12 02:30N 26°06' W 079°54'5 9.2
2017-Oct-12 02:00N 26°06' W 079°59'5 9.4
2017-Oct-12 01:30N 26°05' W 080°05'2 4.4
2017-Oct-12 01:00N 26°04' W 080°07'0 0.5
2017-Oct-12 00:30N 26°04' W 080°07'0 0.0
2017-Oct-11 23:59N 26°04' W 080°07'0 0.0
2017-Oct-11 23:26N 26°04' W 080°07'0 0.0
2017-Oct-11 22:53N 26°04' W 080°07'0 0.0
2017-Oct-11 22:20N 26°04' W 080°07'0 0.0
2017-Oct-11 21:59N 26°04' W 080°07'0 0.0
2017-Oct-11 21:25N 26°04' W 080°07'0 0.0
2017-Oct-11 20:55N 26°04' W 080°07'0 0.0
2017-Oct-11 20:25N 26°04' W 080°07'0 0.0
2017-Oct-11 19:58N 26°04' W 080°07'0 0.0
2017-Oct-11 19:30N 26°04' W 080°07'0 0.0
2017-Oct-11 18:57N 26°04' W 080°07'0 0.4
2017-Oct-11 18:30N 26°04' W 080°07'3 5.5
2017-Oct-11 18:00N 26°06' W 080°04'1 1.1
2017-Oct-11 17:24N 26°06' W 080°04'1 1.6
2017-Oct-11 17:00N 26°07' W 080°05'0 0.0
2017-Oct-10 23:59N 26°07' W 080°05'0 0.0
2017-Oct-10 23:28N 26°07' W 080°05'0 0.0
2017-Oct-10 22:58N 26°07' W 080°05'0 0.0
2017-Oct-10 22:25N 26°07' W 080°05'0 0.0
2017-Oct-10 21:52N 26°07' W 080°05'0 0.0
2017-Oct-10 21:31N 26°07' W 080°05'0 0.0
2017-Oct-10 21:00N 26°07' W 080°05'0 0.0
2017-Oct-10 20:27N 26°07' W 080°05'0 0.0
2017-Oct-10 19:54N 26°07' W 080°05'0 0.0
2017-Oct-10 19:30N 26°07' W 080°05'0 0.0
2017-Oct-10 18:59N 26°07' W 080°05'0 0.1
2017-Oct-10 18:29N 26°07' W 080°05'0 0.0
2017-Oct-10 17:56N 26°07' W 080°05'0 0.0
2017-Oct-10 17:23N 26°07' W 080°05'0 0.0
2017-Oct-10 16:46N 26°07' W 080°05'0 0.1
2017-Oct-10 16:25N 26°07' W 080°05'0 0.0
2017-Oct-10 15:58N 26°07' W 080°05'0 0.0
2017-Oct-10 15:19N 26°07' W 080°05'0 0.0
2017-Oct-10 14:58N 26°07' W 080°05'0 0.0
2017-Oct-10 13:57N 26°07' W 080°05'0 0.0
2017-Oct-10 13:27N 26°07' W 080°05'0 0.0
2017-Oct-10 12:48N 26°07' W 080°05'0 0.0
2017-Oct-10 12:24N 26°07' W 080°05'0 0.0
2017-Oct-10 12:00N 26°07' W 080°05'0 0.0
2017-Oct-10 11:30N 26°07' W 080°05'0 0.0
2017-Oct-10 11:00N 26°07' W 080°05'0 0.0
2017-Oct-10 10:30N 26°07' W 080°05'0 0.0
2017-Oct-10 10:00N 26°07' W 080°05'0 0.0
2017-Oct-10 09:30N 26°07' W 080°05'0 0.0
2017-Oct-10 09:00N 26°07' W 080°05'0 0.0
2017-Oct-10 08:30N 26°07' W 080°05'0 0.0
2017-Oct-10 08:00N 26°07' W 080°05'0 0.0
2017-Oct-10 07:30N 26°07' W 080°05'0 0.0
2017-Oct-10 07:00N 26°07' W 080°05'0 0.0
2017-Oct-10 06:30N 26°07' W 080°05'0 0.0
2017-Oct-10 06:00N 26°07' W 080°05'0 0.0
2017-Oct-10 05:30N 26°07' W 080°05'0 0.0
2017-Oct-10 05:00N 26°07' W 080°05'0 0.0
2017-Oct-10 04:30N 26°07' W 080°05'0 0.0
2017-Oct-10 04:00N 26°07' W 080°05'0 0.0
2017-Oct-10 03:30N 26°07' W 080°05'0 0.5
2017-Oct-10 03:00N 26°07' W 080°05'4 7.1
2017-Oct-10 02:30N 26°08' W 080°01'611.4
2017-Oct-10 01:59N 26°09' W 079°55'  
Track history (hours):
 
Tides and Currents Weather Stations Pressure Air Temp Water Temp Dewpoint Dewpoint Depression Visibility Wind Speed Wind Dir Waves Ship Positions

Allegro

Last reported at 2017-Oct-19 05:20 UTC. Time now 2017-Oct-19 11:16 UTC.
Position N 26°03' W 079°35'.

Length 100 m; draft 4.6 m.

Type: Ship. MMSI: 376609000.

Date/timePositionNaut miles runAvg speedWind from/ knotsBaromVisibWave heightAir tempDewpointWater temp
2017-Oct-19 05:20N 26°03' W 079°35'410.9
2017-Oct-19 05:00N 26°05' W 079°39'510.7
2017-Oct-19 04:30N 26°06' W 079°44'510.7
2017-Oct-19 04:00N 26°08' W 079°50'510.8
2017-Oct-19 03:30N 26°06' W 079°56'611.9
2017-Oct-19 03:00N 26°05' W 080°02'4 8.4
2017-Oct-19 02:30N 26°05' W 080°07'1 1.9
2017-Oct-19 02:00N 26°04' W 080°07'0 0.0
2017-Oct-19 01:28N 26°04' W 080°07'0 0.0
2017-Oct-19 00:58N 26°04' W 080°07'0 0.0
2017-Oct-19 00:28N 26°04' W 080°07'0 0.0
2017-Oct-18 23:52N 26°04' W 080°07'0 0.0
2017-Oct-18 23:28N 26°04' W 080°07'0 0.0
2017-Oct-18 23:00N 26°04' W 080°07'0 0.0
2017-Oct-18 22:30N 26°04' W 080°07'0 0.0
2017-Oct-18 21:57N 26°04' W 080°07'0 0.0
2017-Oct-18 21:27N 26°04' W 080°07'0 0.0
2017-Oct-18 21:00N 26°04' W 080°07'0 0.0
2017-Oct-18 20:29N 26°04' W 080°07'0 0.0
2017-Oct-18 19:56N 26°04' W 080°07'0 0.1
2017-Oct-18 19:24N 26°04' W 080°07'2 4.8
2017-Oct-18 19:00N 26°06' W 080°06'1 3.0
2017-Oct-18 18:30N 26°06' W 080°04'2 3.3
2017-Oct-18 18:00N 26°08' W 080°04'0 0.2
2017-Oct-18 17:30N 26°08' W 080°04'0 0.0
2017-Oct-18 17:00N 26°08' W 080°04'0 0.0
2017-Oct-18 16:30N 26°08' W 080°04'0 0.0
2017-Oct-18 16:00N 26°08' W 080°04'0 0.0
2017-Oct-18 15:30N 26°08' W 080°04'0 0.1
2017-Oct-18 15:00N 26°08' W 080°04'0 0.0
2017-Oct-18 14:00N 26°08' W 080°04'0 0.0
2017-Oct-18 13:30N 26°08' W 080°04'0 0.0
2017-Oct-18 13:00N 26°08' W 080°04'0 0.2
2017-Oct-18 12:30N 26°08' W 080°04'4 8.2
2017-Oct-18 12:00N 26°09' W 079°60'510.0
2017-Oct-18 11:30N 26°04' W 079°57'4 7.7
2017-Oct-18 11:00N 26°06' W 079°53'4 7.4
2017-Oct-18 10:30N 26°08' W 079°50'4 7.1
2017-Oct-18 10:00N 26°10' W 079°47'4 7.2
2017-Oct-18 09:30N 26°10' W 079°43'4 7.5
2017-Oct-18 09:00N 26°11' W 079°39'4 8.5
2017-Oct-18 08:30N 26°10' W 079°34'4 8.9
2017-Oct-18 08:00N 26°10' W 079°29'2 0.1
2017-Oct-17 01:34N 26°10' W 079°27'110.9
2017-Oct-17 01:30N 26°10' W 079°27'510.7
2017-Oct-17 01:00N 26°11' W 079°33'510.9
2017-Oct-17 00:30N 26°10' W 079°39'611.3
2017-Oct-17 00:00N 26°08' W 079°46'611.6
2017-Oct-16 23:30N 26°07' W 079°52'611.0
2017-Oct-16 23:00N 26°06' W 079°58'611.5
2017-Oct-16 22:30N 26°06' W 080°04'3 5.8
2017-Oct-16 22:00N 26°04' W 080°07'0 0.1
2017-Oct-16 21:29N 26°04' W 080°07'0 0.0
2017-Oct-16 20:56N 26°04' W 080°07'0 0.0
2017-Oct-16 20:29N 26°04' W 080°07'0 0.0
2017-Oct-16 19:59N 26°04' W 080°07'0 0.0
2017-Oct-16 19:28N 26°04' W 080°07'0 0.0
2017-Oct-16 18:58N 26°04' W 080°07'0 0.0
2017-Oct-16 18:28N 26°04' W 080°07'0 0.0
2017-Oct-16 17:49N 26°04' W 080°07'1 1.9
2017-Oct-16 17:30N 26°05' W 080°07'3 6.3
2017-Oct-16 17:00N 26°06' W 080°04'1 2.8
2017-Oct-16 16:30N 26°08' W 080°04'0 0.2
2017-Oct-16 16:00N 26°08' W 080°04'0 0.0
2017-Oct-16 15:30N 26°08' W 080°04'0 0.0
2017-Oct-16 14:59N 26°08' W 080°04'0 0.0
2017-Oct-16 14:26N 26°08' W 080°04'0 0.0
2017-Oct-16 13:26N 26°08' W 080°04'0 0.2
2017-Oct-16 12:58N 26°08' W 080°04'0 0.1
2017-Oct-16 12:28N 26°08' W 080°04'0 0.1
2017-Oct-16 11:58N 26°08' W 080°04'0 0.0
2017-Oct-16 11:25N 26°08' W 080°04'0 0.0
2017-Oct-16 11:00N 26°08' W 080°04'0 0.0
2017-Oct-16 10:30N 26°08' W 080°04'0 0.0
2017-Oct-16 10:00N 26°08' W 080°04'0 0.0
2017-Oct-16 09:24N 26°08' W 080°04'0 0.0
2017-Oct-16 08:50N 26°08' W 080°04'0 0.0
2017-Oct-16 08:29N 26°08' W 080°04'0 0.0
2017-Oct-16 07:59N 26°08' W 080°04'0 0.0
2017-Oct-16 07:29N 26°08' W 080°04'0 0.0
2017-Oct-16 06:59N 26°08' W 080°04'0 0.0
2017-Oct-16 06:22N 26°08' W 080°04'0 0.0
2017-Oct-16 05:58N 26°08' W 080°04'0 0.0
2017-Oct-16 05:28N 26°08' W 080°04'0 0.0
2017-Oct-16 04:58N 26°08' W 080°04'0 0.0
2017-Oct-16 04:25N 26°08' W 080°04'0 0.0
2017-Oct-16 04:00N 26°08' W 080°04'0 0.0
2017-Oct-16 03:30N 26°08' W 080°04'0 0.0
2017-Oct-16 03:00N 26°08' W 080°04'0 0.0
2017-Oct-16 02:24N 26°08' W 080°04'0 0.0
2017-Oct-16 01:53N 26°08' W 080°04'0 0.0
2017-Oct-16 01:29N 26°08' W 080°04'0 0.0
2017-Oct-16 00:59N 26°08' W 080°04'0 0.0
2017-Oct-16 00:26N 26°08' W 080°04'0 0.0
2017-Oct-15 23:59N 26°08' W 080°04'0 0.0
2017-Oct-15 23:28N 26°08' W 080°04'0 0.0
2017-Oct-15 22:58N 26°08' W 080°04'0 0.0
2017-Oct-15 22:28N 26°08' W 080°04'0 0.1
2017-Oct-15 21:55N 26°08' W 080°04'0 0.1
2017-Oct-15 21:28N 26°08' W 080°04'0 0.0
2017-Oct-15 21:00N 26°08' W 080°04'0 0.0
2017-Oct-15 20:30N 26°08' W 080°04'0 0.0
2017-Oct-15 19:57N 26°08' W 080°04'0 0.0
2017-Oct-15 19:24N 26°08' W 080°04'0 0.0
2017-Oct-15 18:50N 26°08' W 080°04'0 0.0
2017-Oct-15 18:29N 26°08' W 080°04'0 0.0
2017-Oct-15 17:59N 26°08' W 080°04'0 0.1
2017-Oct-15 17:29N 26°08' W 080°04'0 0.1
2017-Oct-15 16:59N 26°08' W 080°04'0 0.0
2017-Oct-15 16:28N 26°08' W 080°04'0 0.1
2017-Oct-15 15:58N 26°08' W 080°04'0 0.0
2017-Oct-15 15:28N 26°08' W 080°04'0 0.0
2017-Oct-15 14:55N 26°08' W 080°04'0 0.0
2017-Oct-15 14:00N 26°08' W 080°04'0 0.0
2017-Oct-15 13:30N 26°08' W 080°04'0 0.0
2017-Oct-15 12:57N 26°08' W 080°04'0 0.0
2017-Oct-15 12:24N 26°08' W 080°04'0 0.0
2017-Oct-15 11:50N 26°08' W 080°04'0 0.0
2017-Oct-15 11:29N 26°08' W 080°04'0 0.0
2017-Oct-15 10:59N 26°08' W 080°04'0 0.0
2017-Oct-15 10:26N 26°08' W 080°04'0 0.0
2017-Oct-15 09:52N 26°08' W 080°04'0 0.0
2017-Oct-15 09:19N 26°08' W 080°04'0 0.0
2017-Oct-15 08:46N 26°08' W 080°04'0 0.0
2017-Oct-15 08:28N 26°08' W 080°04'0 0.0
2017-Oct-15 07:55N 26°08' W 080°04'0 0.0
2017-Oct-15 07:21N 26°08' W 080°04'0 0.0
2017-Oct-15 07:00N 26°08' W 080°04'0 0.0
2017-Oct-15 06:30N 26°08' W 080°04'0 0.0
2017-Oct-15 05:57N 26°08' W 080°04'0 0.0
2017-Oct-15 05:21N 26°08' W 080°04'0 0.0
2017-Oct-15 04:44N 26°08' W 080°04'0 0.0
2017-Oct-15 04:29N 26°08' W 080°04'0 0.0
2017-Oct-15 03:59N 26°08' W 080°04'0 0.0
2017-Oct-15 03:20N 26°08' W 080°04'0 0.0
2017-Oct-15 02:52N 26°08' W 080°04'0 0.0
2017-Oct-15 02:19N 26°08' W 080°04'0 0.0
2017-Oct-15 01:58N 26°08' W 080°04'0 0.0
2017-Oct-15 01:28N 26°08' W 080°04'0 0.0
2017-Oct-15 00:55N 26°08' W 080°04'0 0.0
2017-Oct-15 00:21N 26°08' W 080°04'0 0.0
2017-Oct-15 00:00N 26°08' W 080°04'0 0.0
2017-Oct-14 23:30N 26°08' W 080°04'0 0.0
2017-Oct-14 23:00N 26°08' W 080°04'0 0.0
2017-Oct-14 22:30N 26°08' W 080°04'0 0.0
2017-Oct-14 22:00N 26°08' W 080°04'0 0.0
2017-Oct-14 21:30N 26°08' W 080°04'0 0.0
2017-Oct-14 21:00N 26°08' W 080°04'0 0.0
2017-Oct-14 20:30N 26°08' W 080°04'0 0.0
2017-Oct-14 20:00N 26°08' W 080°04'0 0.0
2017-Oct-14 19:29N 26°08' W 080°04'0 0.0
2017-Oct-14 19:00N 26°08' W 080°04'0 0.0
2017-Oct-14 18:31N 26°08' W 080°04'0 0.0
2017-Oct-14 18:00N 26°08' W 080°04'0 0.0
2017-Oct-14 17:30N 26°08' W 080°04'0 0.0
2017-Oct-14 17:00N 26°08' W 080°04'0 0.0
2017-Oct-14 16:30N 26°08' W 080°04'0 0.1
2017-Oct-14 16:00N 26°08' W 080°04'0 0.0
2017-Oct-14 15:30N 26°08' W 080°04'0 0.0
2017-Oct-14 15:00N 26°08' W 080°04'0 0.0
2017-Oct-14 14:30N 26°08' W 080°04'0 0.0
2017-Oct-14 14:00N 26°08' W 080°04'0 0.0
2017-Oct-14 13:30N 26°08' W 080°04'0 0.0
2017-Oct-14 13:00N 26°08' W 080°04'0 0.0
2017-Oct-14 12:30N 26°08' W 080°04'0 0.0
2017-Oct-14 12:00N 26°08' W 080°04'0 0.0
2017-Oct-14 11:30N 26°08' W 080°04'0 0.0
2017-Oct-14 11:01N 26°08' W 080°04'0 0.0
2017-Oct-14 10:31N 26°08' W 080°04'0 0.0
2017-Oct-14 10:00N 26°08' W 080°04'0 0.0
2017-Oct-14 09:31N 26°08' W 080°04'0 0.0
2017-Oct-14 09:00N 26°08' W 080°04'0 0.0
2017-Oct-14 08:30N 26°08' W 080°04'0 0.0
2017-Oct-14 08:00N 26°08' W 080°04'0 0.1
2017-Oct-14 07:31N 26°08' W 080°04'0 0.0
2017-Oct-14 07:00N 26°08' W 080°04'0 0.0
2017-Oct-14 06:30N 26°08' W 080°04'0 0.0
2017-Oct-14 06:00N 26°08' W 080°04'0 0.0
2017-Oct-14 05:30N 26°08' W 080°04'0 0.0
2017-Oct-14 05:00N 26°08' W 080°04'0 0.0
2017-Oct-14 04:30N 26°08' W 080°04'0 0.0
2017-Oct-14 04:00N 26°08' W 080°04'0 0.0
2017-Oct-14 03:30N 26°08' W 080°04'0 0.1
2017-Oct-14 03:00N 26°08' W 080°04'0 0.4
2017-Oct-14 02:30N 26°08' W 080°04'1 1.1
2017-Oct-14 02:00N 26°07' W 080°04'1 0.2
2017-Oct-13 23:37N 26°07' W 080°04'0 0.0
2017-Oct-13 23:28N 26°07' W 080°04'0 0.0
2017-Oct-13 22:52N 26°07' W 080°04'0 0.0
2017-Oct-13 22:18N 26°07' W 080°04'0 0.0
2017-Oct-13 22:00N 26°07' W 080°04'0 0.0
2017-Oct-13 21:27N 26°07' W 080°04'0 0.0
2017-Oct-13 21:00N 26°07' W 080°04'0 0.0
2017-Oct-13 20:20N 26°07' W 080°04'0 0.0
2017-Oct-13 19:59N 26°07' W 080°04'0 0.0
2017-Oct-13 19:29N 26°07' W 080°04'0 0.0
2017-Oct-13 18:56N 26°07' W 080°04'0 0.0
2017-Oct-13 18:23N 26°07' W 080°04'0 0.0
2017-Oct-13 17:58N 26°07' W 080°04'0 0.0
2017-Oct-13 17:28N 26°07' W 080°04'0 0.0
2017-Oct-13 16:55N 26°07' W 080°04'0 0.0
2017-Oct-13 16:25N 26°07' W 080°04'0 0.0
2017-Oct-13 15:52N 26°07' W 080°04'0 0.1
2017-Oct-13 15:30N 26°07' W 080°04'3 6.1
2017-Oct-13 15:01N 26°08' W 080°01'510.8
2017-Oct-13 14:31N 26°08' W 079°55'510.6
2017-Oct-13 14:01N 26°09' W 079°49'510.1
2017-Oct-13 13:30N 26°10' W 079°44'510.4
2017-Oct-13 13:00N 26°11' W 079°38'510.5
2017-Oct-13 12:31N 26°11' W 079°32'510.4
2017-Oct-13 11:59N 26°11' W 079°26'4 0.1
2017-Oct-12 04:54N 26°08' W 079°29'410.1
2017-Oct-12 04:30N 26°08' W 079°33'5 9.9
2017-Oct-12 04:00N 26°07' W 079°39'5 9.8
2017-Oct-12 03:30N 26°07' W 079°44'5 9.3
2017-Oct-12 03:00N 26°07' W 079°49'5 9.2
2017-Oct-12 02:30N 26°06' W 079°54'5 9.2
2017-Oct-12 02:00N 26°06' W 079°59'5 9.4
2017-Oct-12 01:30N 26°05' W 080°05'2 4.4
2017-Oct-12 01:00N 26°04' W 080°07'0 0.5
2017-Oct-12 00:30N 26°04' W 080°07'0 0.0
2017-Oct-11 23:59N 26°04' W 080°07'0 0.0
2017-Oct-11 23:26N 26°04' W 080°07'0 0.0
2017-Oct-11 22:53N 26°04' W 080°07'0 0.0
2017-Oct-11 22:20N 26°04' W 080°07'0 0.0
2017-Oct-11 21:59N 26°04' W 080°07'0 0.0
2017-Oct-11 21:25N 26°04' W 080°07'0 0.0
2017-Oct-11 20:55N 26°04' W 080°07'0 0.0
2017-Oct-11 20:25N 26°04' W 080°07'0 0.0
2017-Oct-11 19:58N 26°04' W 080°07'0 0.0
2017-Oct-11 19:30N 26°04' W 080°07'0 0.0
2017-Oct-11 18:57N 26°04' W 080°07'0 0.4
2017-Oct-11 18:30N 26°04' W 080°07'3 5.5
2017-Oct-11 18:00N 26°06' W 080°04'1 1.1
2017-Oct-11 17:24N 26°06' W 080°04'1 1.6
2017-Oct-11 17:00N 26°07' W 080°05'0 0.0
2017-Oct-10 23:59N 26°07' W 080°05'0 0.0
2017-Oct-10 23:28N 26°07' W 080°05'0 0.0
2017-Oct-10 22:58N 26°07' W 080°05'0 0.0
2017-Oct-10 22:25N 26°07' W 080°05'0 0.0
2017-Oct-10 21:52N 26°07' W 080°05'0 0.0
2017-Oct-10 21:31N 26°07' W 080°05'0 0.0
2017-Oct-10 21:00N 26°07' W 080°05'0 0.0
2017-Oct-10 20:27N 26°07' W 080°05'0 0.0
2017-Oct-10 19:54N 26°07' W 080°05'0 0.0
2017-Oct-10 19:30N 26°07' W 080°05'0 0.0
2017-Oct-10 18:59N 26°07' W 080°05'0 0.1
2017-Oct-10 18:29N 26°07' W 080°05'0 0.0
2017-Oct-10 17:56N 26°07' W 080°05'0 0.0
2017-Oct-10 17:23N 26°07' W 080°05'0 0.0
2017-Oct-10 16:46N 26°07' W 080°05'0 0.1
2017-Oct-10 16:25N 26°07' W 080°05'0 0.0
2017-Oct-10 15:58N 26°07' W 080°05'0 0.0
2017-Oct-10 15:19N 26°07' W 080°05'0 0.0
2017-Oct-10 14:58N 26°07' W 080°05'0 0.0
2017-Oct-10 13:57N 26°07' W 080°05'0 0.0
2017-Oct-10 13:27N 26°07' W 080°05'0 0.0
2017-Oct-10 12:48N 26°07' W 080°05'0 0.0
2017-Oct-10 12:24N 26°07' W 080°05'0 0.0
2017-Oct-10 12:00N 26°07' W 080°05'0 0.0
2017-Oct-10 11:30N 26°07' W 080°05'0 0.0
2017-Oct-10 11:00N 26°07' W 080°05'0 0.0
2017-Oct-10 10:30N 26°07' W 080°05'0 0.0
2017-Oct-10 10:00N 26°07' W 080°05'0 0.0
2017-Oct-10 09:30N 26°07' W 080°05'0 0.0
2017-Oct-10 09:00N 26°07' W 080°05'0 0.0
2017-Oct-10 08:30N 26°07' W 080°05'0 0.0
2017-Oct-10 08:00N 26°07' W 080°05'0 0.0
2017-Oct-10 07:30N 26°07' W 080°05'0 0.0
2017-Oct-10 07:00N 26°07' W 080°05'0 0.0
2017-Oct-10 06:30N 26°07' W 080°05'0 0.0
2017-Oct-10 06:00N 26°07' W 080°05'0 0.0
2017-Oct-10 05:30N 26°07' W 080°05'0 0.0
2017-Oct-10 05:00N 26°07' W 080°05'0 0.0
2017-Oct-10 04:30N 26°07' W 080°05'0 0.0
2017-Oct-10 04:00N 26°07' W 080°05'0 0.0
2017-Oct-10 03:30N 26°07' W 080°05'0 0.5
2017-Oct-10 03:00N 26°07' W 080°05'4 7.1
2017-Oct-10 02:30N 26°08' W 080°01'611.4
2017-Oct-10 01:59N 26°09' W 079°55'  

Dump ship's entire track history